Newcastle, Nebraska
Current Conditions -  °F | °C
As of 12:35 AM on Wednesday 28 Jan 2015 (Local Time) from KLCG Reporting Station
Clear Clear  
Wind Chill: 28°   Ceiling: Unl
Heat Index: 34°   Visibility: 10mi
Dew Point: 30°   Wind: 7mph
Humidity: 85%   Direction: 170°S
Pressure: 29.93"   Gusts: NA
Location:  42.65°N, 96.87°W
Report Text: KLCG 280635Z AUTO 17006KT 10SM CLR 01/M01 A2993 RMK AO2 T00121011
Loading
Personal Weather Stations






























Interactive Weather Map New forecast layout! Learn more

10-Day Weather Forecast

Advertisements
Track Severe Weather on mobile